Uni-arise — 3FSV7 — position and weather

sailwx.info

Track history (hours):
 
Tides and Currents Weather Stations Pressure Air Temp Water Temp Dewpoint Dewpoint Depression Visibility Wind Speed Wind Dir Waves Ship Positions

Uni-arise

Last reported at 2014-Jul-27 18:09 UTC. Time now 2014-Aug-01 15:52 UTC.
Position N 01°16' E 104°09'.

Length 165 m; draft 6 m.

Type: Cargo ship. MMSI: 351608000.

Date/timePositionNaut miles runAvg speedWind from/ knotsBaromVisibWave heightAir tempDewpointWater temp
2014-Jul-27 18:09N 01°16' E 104°09'1017.4
2014-Jul-27 17:34N 01°14' E 103°59'10 9.5
2014-Jul-27 16:33N 01°16' E 103°50'0 0.1
2014-Jul-27 15:33N 01°16' E 103°50'0 0.0
2014-Jul-27 14:33N 01°16' E 103°50'0 0.0
2014-Jul-27 13:33N 01°16' E 103°50'0 0.0
2014-Jul-27 12:33N 01°16' E 103°50'0 0.0
2014-Jul-27 11:33N 01°16' E 103°50'0 0.0
2014-Jul-27 10:33N 01°16' E 103°50'0 0.0
2014-Jul-27 09:33N 01°16' E 103°50'0 0.0
2014-Jul-27 08:30N 01°16' E 103°50'0 0.0
2014-Jul-27 07:29N 01°16' E 103°50'0 0.0
2014-Jul-27 06:32N 01°16' E 103°50'0 0.0
2014-Jul-27 05:33N 01°16' E 103°50'0 0.0
2014-Jul-27 04:33N 01°16' E 103°50'0 0.0
2014-Jul-27 03:33N 01°16' E 103°50'0 0.0
2014-Jul-27 02:33N 01°16' E 103°50'2 1.7
2014-Jul-27 01:33N 01°16' E 103°51'0 0.3
2014-Jul-27 00:33N 01°15' E 103°52'4 4.3
2014-Jul-26 23:33N 01°14' E 103°56'11 9.8
2014-Jul-26 22:27N 01°16' E 104°07'  
2014-Jul-23 02:31N 01°14' E 103°56'  
2014-Jul-20 21:14N 01°09' E 103°45'1015.3
2014-Jul-20 20:34N 01°14' E 103°55'  
Track history (hours):
 
Tides and Currents Weather Stations Pressure Air Temp Water Temp Dewpoint Dewpoint Depression Visibility Wind Speed Wind Dir Waves Ship Positions

Uni-arise

Last reported at 2014-Jul-27 18:09 UTC. Time now 2014-Aug-01 15:52 UTC.
Position N 01°16' E 104°09'.

Length 165 m; draft 6 m.

Type: Cargo ship. MMSI: 351608000.

Date/timePositionNaut miles runAvg speedWind from/ knotsBaromVisibWave heightAir tempDewpointWater temp
2014-Jul-27 18:09N 01°16' E 104°09'1017.4
2014-Jul-27 17:34N 01°14' E 103°59'10 9.5
2014-Jul-27 16:33N 01°16' E 103°50'0 0.1
2014-Jul-27 15:33N 01°16' E 103°50'0 0.0
2014-Jul-27 14:33N 01°16' E 103°50'0 0.0
2014-Jul-27 13:33N 01°16' E 103°50'0 0.0
2014-Jul-27 12:33N 01°16' E 103°50'0 0.0
2014-Jul-27 11:33N 01°16' E 103°50'0 0.0
2014-Jul-27 10:33N 01°16' E 103°50'0 0.0
2014-Jul-27 09:33N 01°16' E 103°50'0 0.0
2014-Jul-27 08:30N 01°16' E 103°50'0 0.0
2014-Jul-27 07:29N 01°16' E 103°50'0 0.0
2014-Jul-27 06:32N 01°16' E 103°50'0 0.0
2014-Jul-27 05:33N 01°16' E 103°50'0 0.0
2014-Jul-27 04:33N 01°16' E 103°50'0 0.0
2014-Jul-27 03:33N 01°16' E 103°50'0 0.0
2014-Jul-27 02:33N 01°16' E 103°50'2 1.7
2014-Jul-27 01:33N 01°16' E 103°51'0 0.3
2014-Jul-27 00:33N 01°15' E 103°52'4 4.3
2014-Jul-26 23:33N 01°14' E 103°56'11 9.8
2014-Jul-26 22:27N 01°16' E 104°07'  
2014-Jul-23 02:31N 01°14' E 103°56'  
2014-Jul-20 21:14N 01°09' E 103°45'1015.3
2014-Jul-20 20:34N 01°14' E 103°55'  

Dump ship's entire track history